sensor_id;sensor_type;location;lat;lon;timestamp;pressure;altitude;pressure_sealevel;temperature;humidity
12209;BME280;6167;43.080;25.634;2022-12-07T05:16:25;99704.25;;;6.32;100.00
12209;BME280;6167;43.080;25.634;2022-12-07T05:18:52;99701.00;;;5.84;100.00
12209;BME280;6167;43.080;25.634;2022-12-07T05:21:19;99705.59;;;5.76;100.00
12209;BME280;6167;43.080;25.634;2022-12-07T05:23:46;99703.59;;;5.48;100.00
12209;BME280;6167;43.080;25.634;2022-12-07T05:26:13;99697.94;;;5.65;100.00
12209;BME280;6167;43.080;25.634;2022-12-07T05:28:39;99686.97;;;5.48;100.00
12209;BME280;6167;43.080;25.634;2022-12-07T05:31:06;99697.91;;;5.28;100.00
12209;BME280;6167;43.080;25.634;2022-12-07T05:33:36;99704.56;;;5.03;100.00
12209;BME280;6167;43.080;25.634;2022-12-07T05:36:04;99708.25;;;4.94;100.00
12209;BME280;6167;43.080;25.634;2022-12-07T05:38:33;99686.84;;;5.15;100.00
12209;BME280;6167;43.080;25.634;2022-12-07T05:44:07;99705.69;;;4.90;100.00
12209;BME280;6167;43.080;25.634;2022-12-07T05:46:34;99716.34;;;4.80;100.00
12209;BME280;6167;43.080;25.634;2022-12-07T05:49:01;99714.38;;;4.93;100.00
12209;BME280;6167;43.080;25.634;2022-12-07T05:51:28;99709.50;;;5.18;100.00
12209;BME280;6167;43.080;25.634;2022-12-07T05:53:55;99714.09;;;5.05;100.00
12209;BME280;6167;43.080;25.634;2022-12-07T05:56:22;99722.22;;;4.93;100.00
12209;BME280;6167;43.080;25.634;2022-12-07T05:58:49;99706.97;;;4.69;100.00
12209;BME280;6167;43.080;25.634;2022-12-07T06:01:35;99726.13;;;4.72;100.00
12209;BME280;6167;43.080;25.634;2022-12-07T06:04:02;99733.25;;;4.64;100.00
12209;BME280;6167;43.080;25.634;2022-12-07T06:06:28;99730.00;;;4.98;100.00
12209;BME280;6167;43.080;25.634;2022-12-07T06:08:56;99719.13;;;5.17;100.00
12209;BME280;6167;43.080;25.634;2022-12-07T06:11:22;99730.94;;;5.37;100.00
12209;BME280;6167;43.080;25.634;2022-12-07T06:14:07;99732.50;;;5.02;100.00
12209;BME280;6167;43.080;25.634;2022-12-07T06:16:35;99727.56;;;5.32;100.00
12209;BME280;6167;43.080;25.634;2022-12-07T06:19:02;99727.13;;;5.51;100.00
12209;BME280;6167;43.080;25.634;2022-12-07T06:21:29;99725.69;;;5.38;100.00
12209;BME280;6167;43.080;25.634;2022-12-07T06:23:56;99722.75;;;5.52;100.00
12209;BME280;6167;43.080;25.634;2022-12-07T06:26:25;99717.06;;;5.72;100.00
12209;BME280;6167;43.080;25.634;2022-12-07T06:28:55;99720.03;;;5.57;100.00
12209;BME280;6167;43.080;25.634;2022-12-07T06:31:25;99727.47;;;5.36;100.00
12209;BME280;6167;43.080;25.634;2022-12-07T06:33:57;99735.44;;;5.70;100.00
12209;BME280;6167;43.080;25.634;2022-12-07T06:36:24;99703.34;;;7.57;100.00
12209;BME280;6167;43.080;25.634;2022-12-07T06:38:51;99719.84;;;8.18;100.00
12209;BME280;6167;43.080;25.634;2022-12-07T06:41:18;99723.25;;;7.93;100.00
12209;BME280;6167;43.080;25.634;2022-12-07T06:43:45;99728.72;;;6.99;100.00
12209;BME280;6167;43.080;25.634;2022-12-07T06:46:12;99727.88;;;6.32;100.00
12209;BME280;6167;43.080;25.634;2022-12-07T06:48:39;99712.75;;;6.74;100.00
12209;BME280;6167;43.080;25.634;2022-12-07T06:51:08;99718.50;;;6.56;100.00
12209;BME280;6167;43.080;25.634;2022-12-07T06:53:37;99701.84;;;5.86;100.00
12209;BME280;6167;43.080;25.634;2022-12-07T06:56:04;99691.16;;;6.31;100.00
12209;BME280;6167;43.080;25.634;2022-12-07T06:58:31;99699.75;;;6.37;100.00
12209;BME280;6167;43.080;25.634;2022-12-07T07:00:58;99703.00;;;6.11;100.00
12209;BME280;6167;43.080;25.634;2022-12-07T07:03:25;99708.94;;;6.19;100.00
12209;BME280;6167;43.080;25.634;2022-12-07T07:05:52;99703.44;;;6.63;100.00
12209;BME280;6167;43.080;25.634;2022-12-07T07:08:19;99711.75;;;6.46;100.00
12209;BME280;6167;43.080;25.634;2022-12-07T07:10:47;99707.84;;;6.28;100.00
12209;BME280;6167;43.080;25.634;2022-12-07T07:13:14;99712.63;;;6.46;100.00
12209;BME280;6167;43.080;25.634;2022-12-07T07:15:40;99685.59;;;6.43;100.00
12209;BME280;6167;43.080;25.634;2022-12-07T07:18:08;99732.06;;;6.39;100.00
12209;BME280;6167;43.080;25.634;2022-12-07T07:20:35;99715.25;;;6.12;100.00
12209;BME280;6167;43.080;25.634;2022-12-07T07:23:01;99733.28;;;6.60;100.00
12209;BME280;6167;43.080;25.634;2022-12-07T07:25:28;99727.75;;;6.71;100.00
12209;BME280;6167;43.080;25.634;2022-12-07T07:27:57;99724.78;;;6.83;100.00
12209;BME280;6167;43.080;25.634;2022-12-07T07:30:24;99720.75;;;7.02;100.00
12209;BME280;6167;43.080;25.634;2022-12-07T07:32:51;99723.59;;;6.95;100.00
12209;BME280;6167;43.080;25.634;2022-12-07T07:35:17;99714.38;;;7.40;100.00
12209;BME280;6167;43.080;25.634;2022-12-07T07:37:44;99725.03;;;7.65;100.00
12209;BME280;6167;43.080;25.634;2022-12-07T07:40:11;99729.34;;;7.38;100.00
12209;BME280;6167;43.080;25.634;2022-12-07T07:42:38;99728.00;;;7.25;100.00
12209;BME280;6167;43.080;25.634;2022-12-07T07:45:07;99735.06;;;7.23;100.00
12209;BME280;6167;43.080;25.634;2022-12-07T07:47:34;99733.88;;;7.33;100.00
12209;BME280;6167;43.080;25.634;2022-12-07T07:50:02;99729.53;;;7.62;100.00
12209;BME280;6167;43.080;25.634;2022-12-07T07:52:29;99718.69;;;7.43;100.00
12209;BME280;6167;43.080;25.634;2022-12-07T07:54:57;99724.03;;;7.40;100.00
12209;BME280;6167;43.080;25.634;2022-12-07T07:57:24;99721.69;;;7.60;100.00
12209;BME280;6167;43.080;25.634;2022-12-07T07:59:51;99728.25;;;7.16;100.00
12209;BME280;6167;43.080;25.634;2022-12-07T08:02:20;99707.31;;;7.42;100.00
12209;BME280;6167;43.080;25.634;2022-12-07T08:04:47;99710.94;;;7.38;100.00
12209;BME280;6167;43.080;25.634;2022-12-07T08:07:15;99709.44;;;7.30;100.00
12209;BME280;6167;43.080;25.634;2022-12-07T08:09:41;99709.63;;;7.81;100.00
12209;BME280;6167;43.080;25.634;2022-12-07T08:12:08;99698.56;;;7.98;100.00
12209;BME280;6167;43.080;25.634;2022-12-07T08:14:35;99706.78;;;8.68;100.00
12209;BME280;6167;43.080;25.634;2022-12-07T08:17:02;99704.72;;;9.47;100.00
12209;BME280;6167;43.080;25.634;2022-12-07T08:19:30;99699.66;;;9.41;100.00
12209;BME280;6167;43.080;25.634;2022-12-07T08:21:57;99696.66;;;9.95;100.00
12209;BME280;6167;43.080;25.634;2022-12-07T08:24:24;99691.44;;;10.38;100.00
12209;BME280;6167;43.080;25.634;2022-12-07T08:26:51;99685.41;;;9.90;100.00
12209;BME280;6167;43.080;25.634;2022-12-07T08:29:19;99658.94;;;9.92;100.00
12209;BME280;6167;43.080;25.634;2022-12-07T08:31:46;99691.97;;;9.80;100.00
12209;BME280;6167;43.080;25.634;2022-12-07T08:34:13;99674.16;;;9.85;100.00
12209;BME280;6167;43.080;25.634;2022-12-07T08:36:41;99680.06;;;10.36;100.00
12209;BME280;6167;43.080;25.634;2022-12-07T08:39:08;99689.03;;;9.66;100.00
12209;BME280;6167;43.080;25.634;2022-12-07T08:41:35;99695.06;;;9.23;100.00
12209;BME280;6167;43.080;25.634;2022-12-07T08:44:02;99693.84;;;8.85;100.00
12209;BME280;6167;43.080;25.634;2022-12-07T08:46:32;99674.88;;;8.99;100.00
12209;BME280;6167;43.080;25.634;2022-12-07T08:49:04;99678.91;;;9.55;100.00
12209;BME280;6167;43.080;25.634;2022-12-07T08:51:32;99680.13;;;9.69;100.00
12209;BME280;6167;43.080;25.634;2022-12-07T08:54:02;99658.38;;;9.84;100.00
12209;BME280;6167;43.080;25.634;2022-12-07T08:56:30;99660.69;;;10.35;100.00
12209;BME280;6167;43.080;25.634;2022-12-07T08:58:57;99659.81;;;10.75;100.00
12209;BME280;6167;43.080;25.634;2022-12-07T09:01:24;99649.19;;;10.56;100.00
12209;BME280;6167;43.080;25.634;2022-12-07T09:03:52;99652.81;;;10.33;100.00
12209;BME280;6167;43.080;25.634;2022-12-07T09:06:19;99646.25;;;10.22;100.00
12209;BME280;6167;43.080;25.634;2022-12-07T09:08:47;99644.78;;;10.37;100.00
12209;BME280;6167;43.080;25.634;2022-12-07T09:11:18;99644.78;;;10.57;100.00
12209;BME280;6167;43.080;25.634;2022-12-07T09:13:44;99639.78;;;10.70;100.00
12209;BME280;6167;43.080;25.634;2022-12-07T09:16:11;99605.19;;;10.35;100.00
12209;BME280;6167;43.080;25.634;2022-12-07T09:18:38;99628.44;;;10.86;100.00
12209;BME280;6167;43.080;25.634;2022-12-07T09:21:05;99612.47;;;11.08;100.00
12209;BME280;6167;43.080;25.634;2022-12-07T09:23:32;99613.03;;;10.96;100.00
12209;BME280;6167;43.080;25.634;2022-12-07T09:25:59;99589.44;;;10.91;100.00
12209;BME280;6167;43.080;25.634;2022-12-07T09:28:28;99604.06;;;11.55;100.00
12209;BME280;6167;43.080;25.634;2022-12-07T09:30:56;99565.69;;;11.27;100.00
12209;BME280;6167;43.080;25.634;2022-12-07T09:33:23;99603.72;;;11.44;100.00
12209;BME280;6167;43.080;25.634;2022-12-07T09:35:51;99605.56;;;11.79;100.00
12209;BME280;6167;43.080;25.634;2022-12-07T09:38:19;99602.72;;;11.46;100.00
12209;BME280;6167;43.080;25.634;2022-12-07T09:40:46;99596.38;;;11.13;100.00
12209;BME280;6167;43.080;25.634;2022-12-07T09:43:16;99577.06;;;11.29;100.00
12209;BME280;6167;43.080;25.634;2022-12-07T09:45:47;99592.28;;;11.62;100.00
12209;BME280;6167;43.080;25.634;2022-12-07T09:48:17;99593.50;;;11.36;100.00
12209;BME280;6167;43.080;25.634;2022-12-07T09:50:46;99587.91;;;10.86;100.00
12209;BME280;6167;43.080;25.634;2022-12-07T09:53:16;99587.38;;;11.17;100.00
12209;BME280;6167;43.080;25.634;2022-12-07T09:55:46;99577.66;;;11.53;100.00
12209;BME280;6167;43.080;25.634;2022-12-07T09:58:20;99577.97;;;11.28;100.00
12209;BME280;6167;43.080;25.634;2022-12-07T10:00:50;99569.25;;;11.26;100.00
12209;BME280;6167;43.080;25.634;2022-12-07T10:03:19;99571.56;;;11.34;100.00
12209;BME280;6167;43.080;25.634;2022-12-07T10:05:47;99545.41;;;10.90;100.00
12209;BME280;6167;43.080;25.634;2022-12-07T10:08:15;99549.41;;;10.99;100.00
12209;BME280;6167;43.080;25.634;2022-12-07T10:10:43;99548.59;;;11.34;100.00
12209;BME280;6167;43.080;25.634;2022-12-07T10:13:12;99543.50;;;11.30;100.00
12209;BME280;6167;43.080;25.634;2022-12-07T10:15:47;99553.31;;;11.28;100.00
12209;BME280;6167;43.080;25.634;2022-12-07T10:18:27;99545.84;;;11.72;100.00
12209;BME280;6167;43.080;25.634;2022-12-07T10:21:04;99547.53;;;11.56;100.00
12209;BME280;6167;43.080;25.634;2022-12-07T10:23:33;99537.66;;;11.05;100.00
12209;BME280;6167;43.080;25.634;2022-12-07T10:26:19;99535.53;;;11.13;100.00
12209;BME280;6167;43.080;25.634;2022-12-07T10:28:47;99527.97;;;11.41;100.00
12209;BME280;6167;43.080;25.634;2022-12-07T10:31:16;99539.31;;;11.43;100.00
12209;BME280;6167;43.080;25.634;2022-12-07T10:33:51;99528.16;;;11.55;100.00
12209;BME280;6167;43.080;25.634;2022-12-07T10:36:21;99538.78;;;11.90;100.00
12209;BME280;6167;43.080;25.634;2022-12-07T10:38:50;99528.09;;;11.74;100.00
12209;BME280;6167;43.080;25.634;2022-12-07T10:41:18;99524.59;;;11.91;100.00
12209;BME280;6167;43.080;25.634;2022-12-07T10:43:50;99517.06;;;12.00;100.00
12209;BME280;6167;43.080;25.634;2022-12-07T10:52:42;99507.63;;;11.78;100.00
12209;BME280;6167;43.080;25.634;2022-12-07T10:55:18;99515.69;;;11.40;100.00
12209;BME280;6167;43.080;25.634;2022-12-07T10:58:00;99496.44;;;11.36;100.00
12209;BME280;6167;43.080;25.634;2022-12-07T11:00:36;99502.41;;;11.76;100.00
12209;BME280;6167;43.080;25.634;2022-12-07T11:03:30;99502.78;;;11.86;100.00
12209;BME280;6167;43.080;25.634;2022-12-07T11:06:10;99490.56;;;12.33;100.00
12209;BME280;6167;43.080;25.634;2022-12-07T11:08:55;99489.78;;;12.31;100.00
12209;BME280;6167;43.080;25.634;2022-12-07T11:11:30;99480.94;;;12.15;100.00
12209;BME280;6167;43.080;25.634;2022-12-07T11:14:05;99488.34;;;12.26;100.00
12209;BME280;6167;43.080;25.634;2022-12-07T11:16:52;99480.28;;;11.94;100.00
12209;BME280;6167;43.080;25.634;2022-12-07T11:19:32;99478.56;;;11.93;100.00
12209;BME280;6167;43.080;25.634;2022-12-07T11:22:10;99475.75;;;11.96;100.00
12209;BME280;6167;43.080;25.634;2022-12-07T11:24:46;99475.19;;;11.38;100.00
12209;BME280;6167;43.080;25.634;2022-12-07T11:27:23;99473.28;;;11.76;100.00
12209;BME280;6167;43.080;25.634;2022-12-07T11:33:04;99478.88;;;11.87;100.00
12209;BME280;6167;43.080;25.634;2022-12-07T11:35:45;99471.63;;;11.91;100.00
12209;BME280;6167;43.080;25.634;2022-12-07T11:38:20;99474.31;;;12.07;100.00
12209;BME280;6167;43.080;25.634;2022-12-07T11:40:53;99467.03;;;12.27;100.00
12209;BME280;6167;43.080;25.634;2022-12-07T11:43:46;99459.69;;;12.81;100.00
12209;BME280;6167;43.080;25.634;2022-12-07T11:46:17;99448.13;;;13.29;100.00
12209;BME280;6167;43.080;25.634;2022-12-07T11:48:47;99439.63;;;13.53;100.00
12209;BME280;6167;43.080;25.634;2022-12-07T11:51:18;99437.53;;;13.44;100.00
12209;BME280;6167;43.080;25.634;2022-12-07T11:53:50;99418.41;;;13.23;100.00
12209;BME280;6167;43.080;25.634;2022-12-07T11:56:23;99433.44;;;13.68;100.00
12209;BME280;6167;43.080;25.634;2022-12-07T11:58:54;99437.84;;;13.83;100.00
12209;BME280;6167;43.080;25.634;2022-12-07T12:01:31;99431.41;;;14.30;100.00
12209;BME280;6167;43.080;25.634;2022-12-07T12:04:06;99429.13;;;14.38;100.00
12209;BME280;6167;43.080;25.634;2022-12-07T12:06:41;99428.41;;;14.50;100.00
12209;BME280;6167;43.080;25.634;2022-12-07T12:09:12;99411.34;;;14.67;100.00
12209;BME280;6167;43.080;25.634;2022-12-07T12:11:56;99412.94;;;14.84;100.00
12209;BME280;6167;43.080;25.634;2022-12-07T12:14:40;99396.28;;;15.34;100.00
12209;BME280;6167;43.080;25.634;2022-12-07T12:17:18;99379.56;;;15.32;100.00
12209;BME280;6167;43.080;25.634;2022-12-07T12:20:01;99390.91;;;15.21;100.00
12209;BME280;6167;43.080;25.634;2022-12-07T12:22:34;99387.03;;;15.79;100.00
12209;BME280;6167;43.080;25.634;2022-12-07T12:25:05;99388.63;;;15.94;100.00
12209;BME280;6167;43.080;25.634;2022-12-07T12:27:37;99390.31;;;15.95;100.00
12209;BME280;6167;43.080;25.634;2022-12-07T12:30:23;99384.13;;;16.20;100.00
12209;BME280;6167;43.080;25.634;2022-12-07T12:32:51;99372.69;;;16.31;100.00
12209;BME280;6167;43.080;25.634;2022-12-07T12:35:28;99379.94;;;16.03;100.00
12209;BME280;6167;43.080;25.634;2022-12-07T12:38:25;99364.16;;;16.13;100.00
12209;BME280;6167;43.080;25.634;2022-12-07T12:40:53;99359.75;;;16.25;100.00
12209;BME280;6167;43.080;25.634;2022-12-07T12:46:52;99366.19;;;15.84;100.00
12209;BME280;6167;43.080;25.634;2022-12-07T12:49:54;99375.59;;;16.15;100.00
12209;BME280;6167;43.080;25.634;2022-12-07T12:53:02;99364.41;;;16.46;100.00
12209;BME280;6167;43.080;25.634;2022-12-07T12:58:36;99351.22;;;16.32;100.00
12209;BME280;6167;43.080;25.634;2022-12-07T13:01:41;99350.84;;;16.49;100.00
12209;BME280;6167;43.080;25.634;2022-12-07T13:04:34;99322.47;;;16.12;100.00
12209;BME280;6167;43.080;25.634;2022-12-07T13:07:03;99354.78;;;16.20;100.00
12209;BME280;6167;43.080;25.634;2022-12-07T13:09:33;99357.16;;;15.74;100.00
12209;BME280;6167;43.080;25.634;2022-12-07T13:12:04;99371.41;;;15.60;100.00
12209;BME280;6167;43.080;25.634;2022-12-07T13:14:43;99373.97;;;15.62;100.00
12209;BME280;6167;43.080;25.634;2022-12-07T13:20:46;99368.63;;;14.83;100.00
12209;BME280;6167;43.080;25.634;2022-12-07T13:23:18;99347.66;;;14.23;100.00
12209;BME280;6167;43.080;25.634;2022-12-07T13:25:51;99368.63;;;14.27;100.00
12209;BME280;6167;43.080;25.634;2022-12-07T13:28:22;99373.16;;;13.54;100.00
12209;BME280;6167;43.080;25.634;2022-12-07T13:31:02;99373.34;;;13.51;100.00
12209;BME280;6167;43.080;25.634;2022-12-07T13:33:34;99377.59;;;13.54;100.00
12209;BME280;6167;43.080;25.634;2022-12-07T13:36:03;99376.50;;;13.12;100.00
12209;BME280;6167;43.080;25.634;2022-12-07T13:38:32;99376.81;;;12.92;100.00
12209;BME280;6167;43.080;25.634;2022-12-07T13:41:11;99379.03;;;12.99;100.00
12209;BME280;6167;43.080;25.634;2022-12-07T13:43:49;99334.81;;;12.68;100.00
12209;BME280;6167;43.080;25.634;2022-12-07T13:46:19;99381.63;;;12.54;100.00
12209;BME280;6167;43.080;25.634;2022-12-07T13:48:49;99384.88;;;12.59;100.00
12209;BME280;6167;43.080;25.634;2022-12-07T13:51:20;99382.94;;;12.62;100.00
12209;BME280;6167;43.080;25.634;2022-12-07T13:53:49;99374.69;;;12.20;100.00
12209;BME280;6167;43.080;25.634;2022-12-07T13:56:16;99378.78;;;11.77;100.00
12209;BME280;6167;43.080;25.634;2022-12-07T13:58:43;99383.91;;;11.62;100.00
12209;BME280;6167;43.080;25.634;2022-12-07T14:01:10;99383.28;;;11.75;100.00
12209;BME280;6167;43.080;25.634;2022-12-07T14:03:38;99386.56;;;11.28;100.00
12209;BME280;6167;43.080;25.634;2022-12-07T14:06:16;99380.75;;;11.39;100.00
12209;BME280;6167;43.080;25.634;2022-12-07T14:08:45;99380.50;;;11.26;100.00
12209;BME280;6167;43.080;25.634;2022-12-07T14:11:16;99389.50;;;11.05;100.00
12209;BME280;6167;43.080;25.634;2022-12-07T14:14:04;99394.69;;;10.89;100.00
12209;BME280;6167;43.080;25.634;2022-12-07T14:16:33;99395.03;;;11.00;100.00
12209;BME280;6167;43.080;25.634;2022-12-07T14:19:05;99392.97;;;10.88;100.00
12209;BME280;6167;43.080;25.634;2022-12-07T14:21:35;99393.88;;;10.70;100.00
12209;BME280;6167;43.080;25.634;2022-12-07T14:24:10;99394.91;;;10.84;100.00
12209;BME280;6167;43.080;25.634;2022-12-07T14:26:37;99389.63;;;10.84;100.00
12209;BME280;6167;43.080;25.634;2022-12-07T14:29:31;99388.53;;;10.52;100.00
12209;BME280;6167;43.080;25.634;2022-12-07T14:32:04;99372.81;;;10.49;100.00
12209;BME280;6167;43.080;25.634;2022-12-07T14:34:41;99370.69;;;10.39;100.00
12209;BME280;6167;43.080;25.634;2022-12-07T14:37:09;99401.56;;;10.38;100.00
12209;BME280;6167;43.080;25.634;2022-12-07T14:39:37;99399.47;;;10.45;100.00
12209;BME280;6167;43.080;25.634;2022-12-07T14:42:07;99403.03;;;10.25;100.00
12209;BME280;6167;43.080;25.634;2022-12-07T14:44:34;99367.97;;;9.82;100.00
12209;BME280;6167;43.080;25.634;2022-12-07T14:47:01;99387.06;;;9.89;100.00
12209;BME280;6167;43.080;25.634;2022-12-07T14:49:27;99390.34;;;9.94;100.00
12209;BME280;6167;43.080;25.634;2022-12-07T14:51:54;99369.41;;;9.71;100.00
12209;BME280;6167;43.080;25.634;2022-12-07T14:54:23;99387.28;;;9.64;100.00
12209;BME280;6167;43.080;25.634;2022-12-07T14:56:55;99377.19;;;9.53;100.00
12209;BME280;6167;43.080;25.634;2022-12-07T14:59:22;99382.25;;;9.58;100.00
12209;BME280;6167;43.080;25.634;2022-12-07T15:01:49;99371.88;;;9.35;100.00
12209;BME280;6167;43.080;25.634;2022-12-07T15:04:15;99390.47;;;9.52;100.00
12209;BME280;6167;43.080;25.634;2022-12-07T15:06:55;99394.75;;;9.54;100.00
12209;BME280;6167;43.080;25.634;2022-12-07T15:09:22;99392.69;;;9.41;100.00
12209;BME280;6167;43.080;25.634;2022-12-07T15:11:49;99391.31;;;9.32;100.00
12209;BME280;6167;43.080;25.634;2022-12-07T15:14:17;99396.25;;;9.19;100.00
12209;BME280;6167;43.080;25.634;2022-12-07T15:16:44;99401.69;;;9.15;100.00
12209;BME280;6167;43.080;25.634;2022-12-07T15:19:13;99402.28;;;9.01;100.00
12209;BME280;6167;43.080;25.634;2022-12-07T15:21:41;99400.31;;;9.06;100.00
12209;BME280;6167;43.080;25.634;2022-12-07T15:24:09;99401.06;;;9.10;100.00
12209;BME280;6167;43.080;25.634;2022-12-07T15:26:37;99401.06;;;8.88;100.00
12209;BME280;6167;43.080;25.634;2022-12-07T15:29:04;99385.84;;;8.94;100.00
12209;BME280;6167;43.080;25.634;2022-12-07T15:31:33;99386.47;;;9.01;100.00
12209;BME280;6167;43.080;25.634;2022-12-07T15:34:00;99405.78;;;9.02;100.00
12209;BME280;6167;43.080;25.634;2022-12-07T15:36:28;99406.22;;;8.91;100.00
12209;BME280;6167;43.080;25.634;2022-12-07T15:38:56;99375.19;;;8.76;100.00
12209;BME280;6167;43.080;25.634;2022-12-07T15:41:24;99400.94;;;8.91;100.00
12209;BME280;6167;43.080;25.634;2022-12-07T15:43:51;99409.50;;;8.74;100.00
12209;BME280;6167;43.080;25.634;2022-12-07T15:46:38;99407.63;;;8.78;100.00
12209;BME280;6167;43.080;25.634;2022-12-07T15:49:10;99407.69;;;8.76;100.00
12209;BME280;6167;43.080;25.634;2022-12-07T15:51:37;99402.00;;;8.65;100.00
12209;BME280;6167;43.080;25.634;2022-12-07T15:54:04;99383.91;;;8.56;100.00
12209;BME280;6167;43.080;25.634;2022-12-07T15:56:31;99395.28;;;8.56;100.00
12209;BME280;6167;43.080;25.634;2022-12-07T15:58:57;99393.56;;;8.55;100.00
12209;BME280;6167;43.080;25.634;2022-12-07T16:01:26;99356.22;;;8.22;100.00
12209;BME280;6167;43.080;25.634;2022-12-07T16:03:56;99397.00;;;8.36;100.00
12209;BME280;6167;43.080;25.634;2022-12-07T16:06:24;99404.25;;;8.06;100.00
12209;BME280;6167;43.080;25.634;2022-12-07T16:08:51;99400.28;;;7.94;100.00
12209;BME280;6167;43.080;25.634;2022-12-07T16:11:18;99403.63;;;8.22;100.00
12209;BME280;6167;43.080;25.634;2022-12-07T16:13:45;99410.44;;;8.73;100.00
12209;BME280;6167;43.080;25.634;2022-12-07T16:16:13;99407.56;;;8.11;100.00
12209;BME280;6167;43.080;25.634;2022-12-07T16:18:42;99405.91;;;7.85;100.00
12209;BME280;6167;43.080;25.634;2022-12-07T16:21:10;99398.94;;;7.59;100.00
12209;BME280;6167;43.080;25.634;2022-12-07T16:23:37;99410.97;;;7.41;100.00
12209;BME280;6167;43.080;25.634;2022-12-07T16:26:06;99402.19;;;7.16;100.00
12209;BME280;6167;43.080;25.634;2022-12-07T16:28:34;99415.38;;;7.14;100.00
12209;BME280;6167;43.080;25.634;2022-12-07T16:31:05;99417.78;;;7.22;100.00
12209;BME280;6167;43.080;25.634;2022-12-07T16:33:34;99421.50;;;7.15;100.00
12209;BME280;6167;43.080;25.634;2022-12-07T16:36:03;99424.19;;;7.13;100.00
12209;BME280;6167;43.080;25.634;2022-12-07T16:38:31;99395.81;;;6.97;100.00
12209;BME280;6167;43.080;25.634;2022-12-07T16:40:58;99417.25;;;7.11;100.00
12209;BME280;6167;43.080;25.634;2022-12-07T16:43:25;99416.81;;;6.98;100.00
12209;BME280;6167;43.080;25.634;2022-12-07T16:45:52;99414.81;;;6.78;100.00
12209;BME280;6167;43.080;25.634;2022-12-07T16:48:21;99398.28;;;6.75;100.00
12209;BME280;6167;43.080;25.634;2022-12-07T16:51:05;99412.47;;;6.69;100.00
12209;BME280;6167;43.080;25.634;2022-12-07T16:56:43;99409.47;;;6.53;100.00
12209;BME280;6167;43.080;25.634;2022-12-07T16:59:10;99402.03;;;6.40;100.00
12209;BME280;6167;43.080;25.634;2022-12-07T17:01:37;99436.38;;;6.62;100.00
12209;BME280;6167;43.080;25.634;2022-12-07T17:04:07;99392.34;;;6.12;100.00
12209;BME280;6167;43.080;25.634;2022-12-07T17:06:38;99423.97;;;6.37;100.00
12209;BME280;6167;43.080;25.634;2022-12-07T17:09:04;99423.75;;;6.15;100.00
12209;BME280;6167;43.080;25.634;2022-12-07T17:11:38;99428.31;;;6.09;100.00
12209;BME280;6167;43.080;25.634;2022-12-07T17:14:06;99429.13;;;6.11;100.00
12209;BME280;6167;43.080;25.634;2022-12-07T17:16:50;99432.34;;;5.91;100.00
12209;BME280;6167;43.080;25.634;2022-12-07T17:19:17;99438.41;;;5.93;100.00
12209;BME280;6167;43.080;25.634;2022-12-07T17:21:48;99443.97;;;5.81;100.00
12209;BME280;6167;43.080;25.634;2022-12-07T17:24:18;99447.63;;;5.75;100.00
12209;BME280;6167;43.080;25.634;2022-12-07T17:26:46;99449.53;;;5.69;100.00
12209;BME280;6167;43.080;25.634;2022-12-07T17:29:16;99446.09;;;5.67;100.00
12209;BME280;6167;43.080;25.634;2022-12-07T17:31:51;99446.03;;;5.68;100.00
12209;BME280;6167;43.080;25.634;2022-12-07T17:34:20;99435.94;;;5.55;100.00
12209;BME280;6167;43.080;25.634;2022-12-07T17:36:47;99456.41;;;5.73;100.00
12209;BME280;6167;43.080;25.634;2022-12-07T17:39:16;99455.56;;;5.72;100.00
12209;BME280;6167;43.080;25.634;2022-12-07T17:41:43;99451.88;;;5.79;100.00
12209;BME280;6167;43.080;25.634;2022-12-07T17:44:29;99464.41;;;5.68;100.00
12209;BME280;6167;43.080;25.634;2022-12-07T17:46:56;99460.00;;;5.70;100.00
12209;BME280;6167;43.080;25.634;2022-12-07T17:49:25;99455.41;;;5.78;100.00
12209;BME280;6167;43.080;25.634;2022-12-07T17:51:53;99450.47;;;5.66;100.00
12209;BME280;6167;43.080;25.634;2022-12-07T17:54:37;99458.63;;;5.56;100.00
12209;BME280;6167;43.080;25.634;2022-12-07T17:57:07;99457.84;;;5.52;100.00
12209;BME280;6167;43.080;25.634;2022-12-07T17:59:35;99456.69;;;5.62;100.00
12209;BME280;6167;43.080;25.634;2022-12-07T18:02:06;99445.34;;;5.62;100.00
12209;BME280;6167;43.080;25.634;2022-12-07T18:04:33;99463.88;;;5.56;100.00
12209;BME280;6167;43.080;25.634;2022-12-07T18:07:00;99467.44;;;5.53;100.00
12209;BME280;6167;43.080;25.634;2022-12-07T18:09:41;99468.94;;;5.62;100.00
12209;BME280;6167;43.080;25.634;2022-12-07T18:12:10;99463.81;;;5.59;100.00
12209;BME280;6167;43.080;25.634;2022-12-07T18:14:39;99454.34;;;5.53;100.00
12209;BME280;6167;43.080;25.634;2022-12-07T18:17:06;99456.88;;;5.56;100.00
12209;BME280;6167;43.080;25.634;2022-12-07T18:19:33;99461.00;;;5.65;100.00
12209;BME280;6167;43.080;25.634;2022-12-07T18:22:01;99446.75;;;5.75;100.00
12209;BME280;6167;43.080;25.634;2022-12-07T18:24:28;99444.59;;;5.91;100.00
12209;BME280;6167;43.080;25.634;2022-12-07T18:26:57;99452.28;;;5.64;100.00
12209;BME280;6167;43.080;25.634;2022-12-07T18:29:24;99452.47;;;5.58;100.00
12209;BME280;6167;43.080;25.634;2022-12-07T18:31:57;99457.13;;;5.45;100.00
12209;BME280;6167;43.080;25.634;2022-12-07T18:34:24;99454.63;;;5.41;100.00
12209;BME280;6167;43.080;25.634;2022-12-07T18:36:53;99459.09;;;5.39;100.00
12209;BME280;6167;43.080;25.634;2022-12-07T18:39:23;99460.69;;;5.43;100.00
12209;BME280;6167;43.080;25.634;2022-12-07T18:41:51;99458.25;;;5.37;100.00
12209;BME280;6167;43.080;25.634;2022-12-07T18:44:18;99457.66;;;5.26;100.00
12209;BME280;6167;43.080;25.634;2022-12-07T18:46:45;99462.69;;;5.35;100.00
12209;BME280;6167;43.080;25.634;2022-12-07T18:49:16;99461.63;;;5.40;100.00
12209;BME280;6167;43.080;25.634;2022-12-07T18:51:43;99471.31;;;5.72;100.00
12209;BME280;6167;43.080;25.634;2022-12-07T18:54:11;99482.25;;;5.56;100.00